createdAt,value
2023-05-12T00:00:32.188Z,1.27
2023-05-12T00:01:32.205Z,1.27
2023-05-12T00:02:32.243Z,1.26
2023-05-12T00:03:32.452Z,1.25
2023-05-12T00:04:32.251Z,1.25
2023-05-12T00:05:32.228Z,1.27
2023-05-12T00:06:32.240Z,1.26
2023-05-12T00:07:32.196Z,1.29
2023-05-12T00:08:32.271Z,1.26
2023-05-12T00:09:32.190Z,1.27
2023-05-12T00:10:32.215Z,1.26
2023-05-12T00:11:32.187Z,1.27
2023-05-12T00:12:32.205Z,1.27
2023-05-12T00:13:32.258Z,1.28
2023-05-12T00:14:32.244Z,1.27
2023-05-12T00:15:32.289Z,1.25
2023-05-12T00:16:32.340Z,1.26
2023-05-12T00:17:32.337Z,1.27
2023-05-12T00:18:32.545Z,1.30
2023-05-12T00:19:32.327Z,1.28
2023-05-12T00:20:32.313Z,1.28
2023-05-12T00:21:32.347Z,1.28
2023-05-12T00:22:32.350Z,1.28
2023-05-12T00:23:32.345Z,1.27
2023-05-12T00:24:32.305Z,1.28
2023-05-12T00:25:32.320Z,1.31
2023-05-12T00:26:32.318Z,1.29
2023-05-12T00:27:32.310Z,1.29
2023-05-12T00:28:32.271Z,1.29
2023-05-12T00:29:32.286Z,1.31
2023-05-12T00:30:32.311Z,1.30
2023-05-12T00:31:32.325Z,1.29
2023-05-12T00:32:32.411Z,1.29
2023-05-12T00:33:32.266Z,1.30
2023-05-12T00:34:32.256Z,1.32
2023-05-12T00:35:32.273Z,1.30
2023-05-12T00:36:32.288Z,1.31
2023-05-12T00:37:32.261Z,1.31
2023-05-12T00:38:32.246Z,1.30
2023-05-12T00:39:32.216Z,1.30
2023-05-12T00:40:32.264Z,1.30
2023-05-12T00:41:32.228Z,1.30
2023-05-12T00:42:32.282Z,1.30
2023-05-12T00:43:32.283Z,1.30
2023-05-12T00:44:32.245Z,1.28
2023-05-12T00:45:32.284Z,1.30
2023-05-12T00:46:32.277Z,1.27
2023-05-12T00:47:32.341Z,1.30
2023-05-12T00:48:32.331Z,1.30
2023-05-12T00:49:32.257Z,1.28
2023-05-12T00:50:32.281Z,1.30
2023-05-12T00:51:32.248Z,1.32
2023-05-12T00:52:32.282Z,1.32
2023-05-12T00:53:41.369Z,1.30
2023-05-12T00:54:33.283Z,1.31
2023-05-12T00:55:32.255Z,1.31
2023-05-12T00:56:32.227Z,1.32
2023-05-12T00:57:32.277Z,1.31
2023-05-12T00:58:32.218Z,1.33
2023-05-12T00:59:32.216Z,1.35
2023-05-12T01:00:32.205Z,1.33
2023-05-12T01:01:32.250Z,1.32
2023-05-12T01:02:32.284Z,1.34
2023-05-12T01:03:32.247Z,1.29
2023-05-12T01:04:32.227Z,1.31
2023-05-12T01:05:32.183Z,1.33
2023-05-12T01:06:32.154Z,1.31
2023-05-12T01:07:32.209Z,1.33
2023-05-12T01:08:32.154Z,1.33
2023-05-12T01:09:32.167Z,1.35
2023-05-12T01:10:32.176Z,1.34
2023-05-12T01:11:32.157Z,1.30
2023-05-12T01:12:32.148Z,1.32
2023-05-12T01:13:32.139Z,1.34
2023-05-12T01:14:32.151Z,1.35
2023-05-12T01:15:32.092Z,1.34
2023-05-12T01:16:32.100Z,1.33
2023-05-12T01:17:32.246Z,1.32
2023-05-12T01:18:32.147Z,1.36
2023-05-12T01:19:32.074Z,1.33
2023-05-12T01:20:32.103Z,1.36
2023-05-12T01:21:32.051Z,1.35
2023-05-12T01:22:32.045Z,1.35
2023-05-12T01:23:32.103Z,1.35
2023-05-12T01:24:32.052Z,1.32
2023-05-12T01:25:32.099Z,1.34
2023-05-12T01:26:32.023Z,1.35
2023-05-12T01:27:32.019Z,1.38
2023-05-12T01:28:32.032Z,1.35
2023-05-12T01:29:32.044Z,1.36
2023-05-12T01:30:31.984Z,1.36
2023-05-12T01:31:32.047Z,1.36
2023-05-12T01:32:32.017Z,1.40
2023-05-12T01:33:31.978Z,1.39
2023-05-12T01:34:31.980Z,1.34
2023-05-12T01:35:31.961Z,1.35
2023-05-12T01:36:31.926Z,1.36
2023-05-12T01:37:31.947Z,1.38
2023-05-12T01:38:31.953Z,1.33
2023-05-12T01:39:31.965Z,1.36
2023-05-12T01:40:31.924Z,1.36
2023-05-12T01:41:31.919Z,1.36
2023-05-12T01:42:31.935Z,1.37
2023-05-12T01:43:31.916Z,1.38
2023-05-12T01:44:31.894Z,1.36
2023-05-12T01:45:31.876Z,1.38
2023-05-12T01:46:32.022Z,1.35
2023-05-12T01:47:31.925Z,1.37
2023-05-12T01:48:31.828Z,1.37
2023-05-12T01:49:31.893Z,1.41
2023-05-12T01:50:31.873Z,1.36
2023-05-12T01:51:31.854Z,1.41
2023-05-12T01:52:31.840Z,1.39
2023-05-12T01:53:31.837Z,1.40
2023-05-12T01:54:31.846Z,1.37
2023-05-12T01:55:31.815Z,1.36
2023-05-12T01:56:31.809Z,1.36
2023-05-12T01:57:31.791Z,1.36
2023-05-12T01:58:31.818Z,1.39
2023-05-12T01:59:31.859Z,1.40
2023-05-12T02:00:31.841Z,1.40
2023-05-12T02:01:31.924Z,1.40
2023-05-12T02:02:31.894Z,1.34
2023-05-12T02:03:31.995Z,1.40
2023-05-12T02:04:31.881Z,1.40
2023-05-12T02:05:31.765Z,1.39
2023-05-12T02:06:31.769Z,1.39
2023-05-12T02:07:31.757Z,1.38
2023-05-12T02:08:31.831Z,1.40
2023-05-12T02:09:31.766Z,1.35
2023-05-12T02:10:31.807Z,1.41
2023-05-12T02:11:31.916Z,1.40
2023-05-12T02:12:31.817Z,1.37
2023-05-12T02:13:31.789Z,1.40
2023-05-12T02:14:31.896Z,1.38
2023-05-12T02:15:31.782Z,1.40
2023-05-12T02:16:31.861Z,1.37
2023-05-12T02:17:31.814Z,1.36
2023-05-12T02:18:31.877Z,1.38
2023-05-12T02:19:31.808Z,1.39
2023-05-12T02:20:31.927Z,1.43
2023-05-12T02:21:31.824Z,1.45
2023-05-12T02:22:31.786Z,1.42
2023-05-12T02:23:31.864Z,1.45
2023-05-12T02:24:31.848Z,1.43
2023-05-12T02:25:31.822Z,1.39
2023-05-12T02:26:31.831Z,1.42
2023-05-12T02:27:31.789Z,1.40
2023-05-12T02:28:31.792Z,1.45
2023-05-12T02:29:31.824Z,1.45
2023-05-12T02:30:31.839Z,1.42
2023-05-12T02:31:31.840Z,1.43
2023-05-12T02:32:31.872Z,1.39
2023-05-12T02:33:31.822Z,1.42
2023-05-12T02:34:31.813Z,1.39
2023-05-12T02:35:31.815Z,1.38
2023-05-12T02:36:31.855Z,1.44
2023-05-12T02:37:31.848Z,1.47
2023-05-12T02:38:31.838Z,1.43
2023-05-12T02:39:31.842Z,1.46
2023-05-12T02:40:31.860Z,1.44
2023-05-12T02:41:31.892Z,1.40
2023-05-12T02:42:31.822Z,1.40
2023-05-12T02:43:31.822Z,1.47
2023-05-12T02:44:31.842Z,1.46
2023-05-12T02:45:31.848Z,1.44
2023-05-12T02:46:31.853Z,1.40
2023-05-12T02:47:31.926Z,1.41
2023-05-12T02:48:31.829Z,1.44
2023-05-12T02:49:31.866Z,1.46
2023-05-12T02:50:31.847Z,1.46
2023-05-12T02:51:31.900Z,1.47
2023-05-12T02:52:31.836Z,1.45
2023-05-12T02:53:31.837Z,1.42
2023-05-12T02:54:31.849Z,1.40
2023-05-12T02:55:31.859Z,1.42
2023-05-12T02:56:33.768Z,1.43
2023-05-12T02:57:31.890Z,1.43
2023-05-12T02:58:31.888Z,1.45
2023-05-12T02:59:31.838Z,1.45
2023-05-12T03:00:31.897Z,1.45
2023-05-12T03:01:31.919Z,1.41
2023-05-12T03:02:31.955Z,1.46
2023-05-12T03:03:32.035Z,1.41
2023-05-12T03:04:31.924Z,1.46
2023-05-12T03:05:31.934Z,1.43
2023-05-12T03:06:31.932Z,1.50
2023-05-12T03:07:31.934Z,1.45
2023-05-12T03:08:31.904Z,1.43
2023-05-12T03:09:31.905Z,1.48
2023-05-12T03:10:31.962Z,1.41
2023-05-12T03:11:31.912Z,1.44
2023-05-12T03:12:31.919Z,1.45
2023-05-12T03:13:31.982Z,1.47
2023-05-12T03:14:31.931Z,1.41
2023-05-12T03:15:32.408Z,1.45
2023-05-12T03:16:32.013Z,1.45
2023-05-12T03:17:32.015Z,1.48
2023-05-12T03:18:32.134Z,1.48
2023-05-12T03:19:31.945Z,1.45
2023-05-12T03:20:31.953Z,1.44
2023-05-12T03:21:31.952Z,1.43
2023-05-12T03:22:31.976Z,1.46
2023-05-12T03:23:31.980Z,1.49
2023-05-12T03:24:32.064Z,1.49
2023-05-12T03:25:32.034Z,1.47
2023-05-12T03:26:31.995Z,1.49
2023-05-12T03:27:32.077Z,1.46
2023-05-12T03:28:32.032Z,1.48
2023-05-12T03:29:32.096Z,1.50
2023-05-12T03:30:32.045Z,1.45
2023-05-12T03:31:32.171Z,1.47
2023-05-12T03:32:32.111Z,1.49
2023-05-12T03:33:32.130Z,1.50
2023-05-12T03:34:32.118Z,1.44
2023-05-12T03:35:32.085Z,1.49
2023-05-12T03:36:32.140Z,1.47
2023-05-12T03:37:32.061Z,1.46
2023-05-12T03:38:32.195Z,1.42
2023-05-12T03:39:32.116Z,1.51
2023-05-12T03:40:32.113Z,1.48
2023-05-12T03:41:32.124Z,1.46
2023-05-12T03:42:32.103Z,1.48
2023-05-12T03:43:32.107Z,1.49
2023-05-12T03:44:32.144Z,1.46
2023-05-12T03:45:32.103Z,1.46
2023-05-12T03:46:32.209Z,1.49
2023-05-12T03:47:32.239Z,1.47
2023-05-12T03:48:32.119Z,1.48
2023-05-12T03:49:32.202Z,1.48
2023-05-12T03:50:32.136Z,1.48
2023-05-12T03:51:32.117Z,1.50
2023-05-12T03:52:32.140Z,1.50
2023-05-12T03:53:32.153Z,1.48
2023-05-12T03:54:32.156Z,1.50
2023-05-12T03:55:32.131Z,1.48
2023-05-12T03:56:32.128Z,1.50
2023-05-12T03:57:32.149Z,1.51
2023-05-12T03:58:32.186Z,1.49
2023-05-12T03:59:32.142Z,1.49
2023-05-12T04:00:32.114Z,1.49
2023-05-12T04:01:32.155Z,1.47
2023-05-12T04:02:32.332Z,1.49
2023-05-12T04:03:32.272Z,1.53
2023-05-12T04:04:32.171Z,1.50
2023-05-12T04:05:32.186Z,1.53
2023-05-12T04:06:32.206Z,1.49
2023-05-12T04:07:32.170Z,1.49
2023-05-12T04:08:32.184Z,1.49
2023-05-12T04:09:32.185Z,1.51
2023-05-12T04:10:32.220Z,1.50
2023-05-12T04:11:32.219Z,1.49
2023-05-12T04:12:32.199Z,1.49
2023-05-12T04:13:32.197Z,1.49
2023-05-12T04:14:42.151Z,1.48
2023-05-12T04:15:33.216Z,1.48
2023-05-12T04:16:32.265Z,1.48
2023-05-12T04:17:32.248Z,1.49
2023-05-12T04:18:32.251Z,1.49
2023-05-12T04:19:32.234Z,1.47
2023-05-12T04:20:32.202Z,1.47
2023-05-12T04:21:32.261Z,1.52
2023-05-12T04:22:32.199Z,1.49
2023-05-12T04:23:32.197Z,1.46
2023-05-12T04:24:32.866Z,1.46
2023-05-12T04:25:32.164Z,1.51
2023-05-12T04:26:32.172Z,1.47
2023-05-12T04:27:32.171Z,1.45
2023-05-12T04:28:32.157Z,1.48
2023-05-12T04:29:32.139Z,1.47
2023-05-12T04:30:32.121Z,1.54
2023-05-12T04:31:32.154Z,1.44
2023-05-12T04:32:32.230Z,1.44
2023-05-12T04:33:32.130Z,1.46
2023-05-12T04:34:32.144Z,1.44
2023-05-12T04:35:32.141Z,1.41
2023-05-12T04:36:32.102Z,1.43
2023-05-12T04:37:32.080Z,1.42
2023-05-12T04:38:32.165Z,1.40
2023-05-12T04:39:32.111Z,1.39
2023-05-12T04:40:34.728Z,1.43
2023-05-12T04:41:32.066Z,1.47
2023-05-12T04:42:32.099Z,1.41
2023-05-12T04:44:32.200Z,1.39
2023-05-12T04:45:32.042Z,1.40
2023-05-12T04:46:32.096Z,1.40
2023-05-12T04:47:32.102Z,1.42
2023-05-12T04:48:32.021Z,1.40
2023-05-12T04:49:31.975Z,1.40
2023-05-12T04:50:32.004Z,1.38
2023-05-12T04:51:32.042Z,1.39
2023-05-12T04:52:31.994Z,1.36
2023-05-12T04:53:31.973Z,1.40
2023-05-12T04:54:32.006Z,1.38
2023-05-12T04:55:31.982Z,1.37
2023-05-12T04:56:31.964Z,1.37
2023-05-12T04:57:31.965Z,1.40
2023-05-12T04:58:31.989Z,1.42
2023-05-12T04:59:31.985Z,1.37
2023-05-12T05:00:31.912Z,1.38
2023-05-12T05:01:31.994Z,1.38
2023-05-12T05:02:32.041Z,1.44
2023-05-12T05:03:32.006Z,1.37
2023-05-12T05:04:31.912Z,1.37
2023-05-12T05:05:31.909Z,1.38
2023-05-12T05:06:31.886Z,1.37
2023-05-12T05:07:31.918Z,1.38
2023-05-12T05:08:31.877Z,1.39
2023-05-12T05:09:33.352Z,1.40
2023-05-12T05:10:32.020Z,1.41
2023-05-12T05:11:32.105Z,1.41
2023-05-12T05:12:32.099Z,1.40
2023-05-12T05:13:32.099Z,1.41
2023-05-12T05:14:32.103Z,1.42
2023-05-12T05:15:32.114Z,1.38
2023-05-12T05:16:32.132Z,1.36
2023-05-12T05:17:32.164Z,1.35
2023-05-12T05:18:32.186Z,1.36
2023-05-12T05:20:32.599Z,1.39
2023-05-12T05:21:32.150Z,1.37
2023-05-12T05:22:32.178Z,1.37
2023-05-12T05:23:32.099Z,1.37
2023-05-12T05:24:32.088Z,1.34
2023-05-12T05:25:32.084Z,1.35
2023-05-12T05:26:32.072Z,1.34
2023-05-12T05:27:32.082Z,1.34
2023-05-12T05:28:32.072Z,1.34
2023-05-12T05:29:32.050Z,1.33
2023-05-12T05:30:32.200Z,1.33
2023-05-12T05:31:32.087Z,1.29
2023-05-12T05:32:32.014Z,1.31
2023-05-12T05:33:31.994Z,1.34
2023-05-12T05:34:32.065Z,1.30
2023-05-12T05:35:31.998Z,1.26
2023-05-12T05:36:32.410Z,1.26
2023-05-12T05:37:32.014Z,1.25
2023-05-12T05:38:32.027Z,1.20
2023-05-12T05:39:32.086Z,1.08
2023-05-12T05:40:41.333Z,0.92
2023-05-12T05:41:32.989Z,0.92
2023-05-12T05:42:31.981Z,0.87
2023-05-12T05:43:31.951Z,0.80
2023-05-12T05:44:32.026Z,0.79
2023-05-12T05:45:32.934Z,0.81
2023-05-12T05:46:32.406Z,0.87
2023-05-12T05:47:32.494Z,0.87
2023-05-12T05:48:32.457Z,0.90
2023-05-12T05:49:31.921Z,0.91
2023-05-12T05:50:32.466Z,0.92
2023-05-12T05:51:31.878Z,0.89
2023-05-12T05:52:32.007Z,0.97
2023-05-12T05:53:31.869Z,1.03
2023-05-12T05:54:31.974Z,1.09
2023-05-12T05:55:31.868Z,1.06
2023-05-12T05:56:31.963Z,1.11
2023-05-12T05:57:32.492Z,1.14
2023-05-12T05:58:32.425Z,1.15
2023-05-12T05:59:31.962Z,1.13
2023-05-12T06:00:32.397Z,1.17
2023-05-12T06:01:31.997Z,1.21
2023-05-12T06:02:32.096Z,1.21
2023-05-12T06:03:32.090Z,1.25
2023-05-12T06:04:32.032Z,1.30
2023-05-12T06:05:31.975Z,1.29
2023-05-12T06:06:32.020Z,1.35
2023-05-12T06:07:32.143Z,1.38
2023-05-12T06:08:32.180Z,1.43
2023-05-12T06:09:32.175Z,1.45
2023-05-12T06:10:32.258Z,1.47
2023-05-12T06:11:32.341Z,1.51
2023-05-12T06:12:32.345Z,1.55
2023-05-12T06:13:32.420Z,1.59
2023-05-12T06:14:32.445Z,1.66
2023-05-12T06:15:32.551Z,1.68
2023-05-12T06:16:32.533Z,1.74
2023-05-12T06:17:32.882Z,1.78
2023-05-12T06:18:32.605Z,1.82
2023-05-12T06:19:32.649Z,1.88
2023-05-12T06:20:32.610Z,1.92
2023-05-12T06:21:32.743Z,1.93
2023-05-12T06:22:34.161Z,1.98
2023-05-12T06:23:32.680Z,2.08
2023-05-12T06:24:32.871Z,2.14
2023-05-12T06:25:32.686Z,2.21
2023-05-12T06:26:32.700Z,2.18
2023-05-12T06:27:32.750Z,2.31
2023-05-12T06:28:32.701Z,2.34
2023-05-12T06:29:32.673Z,2.40
2023-05-12T06:30:32.723Z,2.46
2023-05-12T06:31:32.751Z,2.47
2023-05-12T06:32:32.869Z,2.56
2023-05-12T06:33:32.726Z,2.58
2023-05-12T06:34:32.695Z,2.68
2023-05-12T06:35:32.719Z,2.77
2023-05-12T06:36:32.689Z,2.85
2023-05-12T06:37:32.738Z,2.89
2023-05-12T06:38:32.878Z,2.86
2023-05-12T06:39:32.696Z,2.82
2023-05-12T06:40:32.690Z,2.58
2023-05-12T06:41:32.689Z,2.34
2023-05-12T06:42:33.043Z,2.30
2023-05-12T06:43:33.007Z,2.26
2023-05-12T06:44:32.728Z,1.86
2023-05-12T06:45:32.810Z,1.73
2023-05-12T06:46:32.887Z,1.61
2023-05-12T06:47:32.924Z,1.51
2023-05-12T06:48:32.908Z,1.49
2023-05-12T06:49:34.278Z,1.43
2023-05-12T06:50:33.112Z,1.41
2023-05-12T06:51:33.124Z,1.33
2023-05-12T06:52:33.192Z,1.22
2023-05-12T06:53:33.253Z,1.25
2023-05-12T06:54:33.302Z,1.14
2023-05-12T06:55:33.303Z,1.14
2023-05-12T06:56:33.323Z,1.14
2023-05-12T06:57:33.301Z,1.10
2023-05-12T06:58:33.507Z,1.10
2023-05-12T06:59:33.525Z,1.05
2023-05-12T07:00:33.333Z,1.02
2023-05-12T07:01:33.409Z,1.07
2023-05-12T07:02:33.973Z,1.01
2023-05-12T07:03:33.537Z,0.97
2023-05-12T07:04:33.277Z,0.91
2023-05-12T07:05:33.556Z,0.90
2023-05-12T07:06:33.338Z,0.91
2023-05-12T07:07:33.346Z,0.87
2023-05-12T07:08:33.350Z,0.82
2023-05-12T07:09:33.356Z,0.84
2023-05-12T07:10:33.291Z,0.83
2023-05-12T07:11:33.430Z,0.84
2023-05-12T07:12:33.318Z,0.80
2023-05-12T07:13:33.320Z,0.81
2023-05-12T07:14:33.318Z,0.80
2023-05-12T07:15:33.523Z,0.74
2023-05-12T07:16:33.560Z,0.73
2023-05-12T07:17:33.394Z,0.71
2023-05-12T07:18:33.371Z,0.71
2023-05-12T07:19:33.365Z,0.68
2023-05-12T07:20:33.363Z,0.69
2023-05-12T07:21:33.488Z,0.68
2023-05-12T07:22:35.506Z,0.71
2023-05-12T07:23:33.380Z,0.66
2023-05-12T07:24:33.346Z,0.65
2023-05-12T07:25:33.402Z,0.66
2023-05-12T07:26:33.377Z,0.62
2023-05-12T07:27:33.371Z,0.63
2023-05-12T07:28:33.385Z,0.61
2023-05-12T07:29:34.972Z,0.60
2023-05-12T07:30:33.454Z,0.61
2023-05-12T07:31:33.546Z,0.63
2023-05-12T07:32:33.436Z,0.60
2023-05-12T07:33:33.469Z,0.56
2023-05-12T07:34:33.372Z,0.56
2023-05-12T07:35:33.351Z,0.54
2023-05-12T07:36:33.362Z,0.51
2023-05-12T07:37:33.355Z,0.51
2023-05-12T07:38:33.267Z,0.51
2023-05-12T07:39:33.292Z,0.55
2023-05-12T07:40:33.293Z,0.53
2023-05-12T07:41:34.491Z,0.52
2023-05-12T07:42:33.279Z,0.53
2023-05-12T07:43:33.276Z,0.55
2023-05-12T07:44:33.692Z,0.52
2023-05-12T07:45:33.290Z,0.52
2023-05-12T07:46:33.282Z,0.52
2023-05-12T07:47:33.339Z,0.51
2023-05-12T07:48:33.218Z,0.51
2023-05-12T07:49:33.478Z,0.54
2023-05-12T07:50:33.394Z,0.57
2023-05-12T07:51:33.262Z,0.55
2023-05-12T07:52:34.000Z,0.54
2023-05-12T07:53:33.420Z,0.52
2023-05-12T07:54:33.706Z,0.50
2023-05-12T07:55:33.615Z,0.50
2023-05-12T07:56:33.471Z,0.54
2023-05-12T07:57:33.474Z,0.56
2023-05-12T07:58:33.536Z,0.58
2023-05-12T07:59:33.609Z,0.56
2023-05-12T08:00:33.636Z,0.54
2023-05-12T08:01:33.712Z,0.55
2023-05-12T08:02:33.807Z,0.54
2023-05-12T08:03:34.058Z,0.51
2023-05-12T08:04:34.102Z,0.51
2023-05-12T08:05:33.883Z,0.55
2023-05-12T08:06:34.101Z,0.56
2023-05-12T08:07:33.958Z,0.54
2023-05-12T08:08:34.003Z,0.57
2023-05-12T08:09:34.129Z,0.53
2023-05-12T08:10:34.118Z,0.51
2023-05-12T08:11:34.122Z,0.52
2023-05-12T08:12:34.208Z,0.54
2023-05-12T08:13:34.252Z,0.56
2023-05-12T08:14:34.261Z,0.52
2023-05-12T08:15:34.334Z,0.54
2023-05-12T08:16:34.467Z,0.55
2023-05-12T08:17:34.660Z,0.54
2023-05-12T08:18:34.643Z,0.50
2023-05-12T08:19:34.452Z,0.56
2023-05-12T08:20:34.764Z,0.51
2023-05-12T08:21:35.972Z,0.52
2023-05-12T08:22:34.669Z,0.53
2023-05-12T08:23:34.622Z,0.55
2023-05-12T08:24:34.612Z,0.53
2023-05-12T08:25:35.526Z,0.55
2023-05-12T08:26:35.168Z,0.52
2023-05-12T08:27:34.863Z,0.51
2023-05-12T08:28:35.300Z,0.50
2023-05-12T08:29:34.968Z,0.48
2023-05-12T08:30:35.289Z,0.50
2023-05-12T08:31:35.298Z,0.50
2023-05-12T08:32:35.211Z,0.50
2023-05-12T08:33:35.083Z,0.50
2023-05-12T08:34:35.101Z,0.51
2023-05-12T08:35:35.055Z,0.51
2023-05-12T08:36:35.049Z,0.53
2023-05-12T08:37:35.208Z,0.52
2023-05-12T08:38:35.162Z,0.50
2023-05-12T08:39:35.198Z,0.51
2023-05-12T08:40:35.250Z,0.53
2023-05-12T08:41:35.385Z,0.59
2023-05-12T08:42:35.378Z,0.62
2023-05-12T08:43:35.425Z,0.51
2023-05-12T08:44:35.506Z,0.50
2023-05-12T08:45:35.586Z,0.51
2023-05-12T08:46:35.720Z,0.50
2023-05-12T08:47:36.055Z,0.50
2023-05-12T08:48:35.570Z,0.52
2023-05-12T08:49:36.075Z,0.51
2023-05-12T08:50:35.585Z,0.51
2023-05-12T08:51:35.947Z,0.51
2023-05-12T08:52:35.648Z,0.55
2023-05-12T08:53:36.665Z,0.54
2023-05-12T08:54:42.447Z,0.53
2023-05-12T08:55:36.672Z,0.53
2023-05-12T08:57:37.460Z,0.54
2023-05-12T08:58:41.056Z,0.53
2023-05-12T08:59:36.713Z,0.53
2023-05-12T09:00:36.019Z,0.53
2023-05-12T09:01:36.912Z,0.50
2023-05-12T09:02:51.369Z,0.50
2023-05-12T09:03:37.563Z,0.53
2023-05-12T09:04:35.704Z,0.51
2023-05-12T09:05:35.676Z,0.53
2023-05-12T09:06:35.643Z,0.53
2023-05-12T09:07:35.640Z,0.52
2023-05-12T09:08:35.662Z,0.51
2023-05-12T09:09:35.644Z,0.50
2023-05-12T09:10:35.968Z,0.52
2023-05-12T09:11:35.613Z,0.56
2023-05-12T09:12:35.618Z,0.57
2023-05-12T09:13:35.632Z,0.58
2023-05-12T09:14:35.569Z,0.62
2023-05-12T09:15:35.588Z,0.57
2023-05-12T09:16:35.632Z,0.55
2023-05-12T09:17:35.623Z,0.57
2023-05-12T09:18:35.667Z,0.56
2023-05-12T09:19:35.581Z,0.56
2023-05-12T09:20:35.649Z,0.54
2023-05-12T09:21:35.690Z,0.55
2023-05-12T09:22:35.749Z,0.55
2023-05-12T09:23:35.788Z,0.55
2023-05-12T09:24:35.833Z,0.55
2023-05-12T09:25:35.831Z,0.53
2023-05-12T09:26:35.864Z,0.54
2023-05-12T09:27:36.053Z,0.58
2023-05-12T09:28:35.943Z,0.60
2023-05-12T09:29:45.050Z,0.66
2023-05-12T09:30:37.037Z,0.66
2023-05-12T09:31:36.036Z,0.68
2023-05-12T09:32:36.392Z,0.72
2023-05-12T09:33:37.220Z,0.81
2023-05-12T09:34:36.113Z,0.90
2023-05-12T09:35:36.451Z,0.94
2023-05-12T09:36:35.891Z,0.94
2023-05-12T09:37:35.893Z,1.00
2023-05-12T09:38:35.905Z,1.09
2023-05-12T09:39:35.872Z,1.09
2023-05-12T09:40:35.853Z,1.19
2023-05-12T09:41:35.878Z,1.17
2023-05-12T09:42:35.842Z,1.30
2023-05-12T09:43:36.051Z,1.40
2023-05-12T09:44:35.845Z,1.44
2023-05-12T09:45:35.915Z,1.55
2023-05-12T09:46:35.862Z,1.65
2023-05-12T09:47:35.872Z,1.76
2023-05-12T09:48:35.931Z,1.68
2023-05-12T09:49:35.917Z,1.54
2023-05-12T09:50:46.556Z,1.49
2023-05-12T09:51:36.857Z,1.50
2023-05-12T09:52:35.833Z,1.55
2023-05-12T09:53:35.836Z,1.56
2023-05-12T09:54:35.872Z,1.52
2023-05-12T09:55:35.833Z,1.46
2023-05-12T09:56:37.472Z,1.60
2023-05-12T09:57:35.857Z,1.51
2023-05-12T09:58:35.853Z,1.53
2023-05-12T09:59:35.888Z,1.53
2023-05-12T10:00:58.544Z,1.51
2023-05-12T10:01:36.959Z,1.51
2023-05-12T10:02:36.001Z,1.57
2023-05-12T10:03:36.030Z,1.60
2023-05-12T10:04:35.953Z,1.75
2023-05-12T10:05:35.920Z,1.87
2023-05-12T10:06:35.877Z,1.81
2023-05-12T10:07:35.897Z,1.88
2023-05-12T10:08:35.905Z,1.76
2023-05-12T10:09:35.917Z,1.67
2023-05-12T10:10:35.891Z,1.73
2023-05-12T10:11:35.901Z,1.71
2023-05-12T10:12:35.894Z,1.78
2023-05-12T10:13:35.944Z,1.72
2023-05-12T10:14:35.981Z,1.59
2023-05-12T10:15:37.383Z,1.60
2023-05-12T10:16:36.090Z,1.55
2023-05-12T10:17:37.070Z,1.49
2023-05-12T10:18:36.265Z,1.46
2023-05-12T10:19:36.236Z,1.41
2023-05-12T10:20:36.257Z,1.45
2023-05-12T10:21:36.192Z,1.50
2023-05-12T10:22:36.254Z,1.50
2023-05-12T10:23:37.890Z,1.46
2023-05-12T10:24:36.312Z,1.59
2023-05-12T10:25:36.327Z,1.54
2023-05-12T10:26:36.379Z,1.56
2023-05-12T10:27:36.524Z,1.33
2023-05-12T10:28:36.444Z,1.16
2023-05-12T10:29:36.519Z,0.99
2023-05-12T10:30:36.506Z,0.78
2023-05-12T10:31:36.542Z,0.77
2023-05-12T10:32:36.553Z,0.74
2023-05-12T10:33:36.585Z,0.70
2023-05-12T10:34:36.615Z,0.79
2023-05-12T10:35:36.604Z,0.82
2023-05-12T10:36:36.552Z,0.91
2023-05-12T10:37:36.549Z,0.93
2023-05-12T10:38:36.570Z,0.83
2023-05-12T10:39:36.628Z,1.00
2023-05-12T10:40:36.571Z,1.10
2023-05-12T10:41:36.648Z,1.14
2023-05-12T10:42:36.685Z,1.27
2023-05-12T10:43:36.767Z,1.37
2023-05-12T10:44:36.878Z,1.43
2023-05-12T10:45:37.017Z,1.49
2023-05-12T10:46:36.964Z,1.42
2023-05-12T10:47:37.086Z,1.54
2023-05-12T10:48:37.011Z,1.64
2023-05-12T10:49:37.100Z,1.72
2023-05-12T10:50:37.186Z,1.70
2023-05-12T10:51:37.161Z,1.71
2023-05-12T10:52:37.230Z,1.87
2023-05-12T10:53:48.289Z,1.94
2023-05-12T10:54:38.250Z,1.95
2023-05-12T10:55:37.322Z,1.96
2023-05-12T10:56:37.518Z,1.95
2023-05-12T10:57:37.519Z,2.01
2023-05-12T10:58:37.688Z,1.80
2023-05-12T10:59:37.807Z,1.91
2023-05-12T11:00:37.780Z,1.86
2023-05-12T11:02:38.384Z,1.86
2023-05-12T11:03:38.301Z,1.90
2023-05-12T11:04:37.484Z,1.90
2023-05-12T11:05:37.780Z,1.86
2023-05-12T11:06:37.632Z,1.87
2023-05-12T11:07:37.524Z,1.85
2023-05-12T11:08:37.854Z,1.63
2023-05-12T11:09:40.715Z,1.72
2023-05-12T11:10:38.907Z,1.72
2023-05-12T11:12:37.412Z,1.63
2023-05-12T11:13:37.273Z,1.82
2023-05-12T11:14:37.278Z,2.05
2023-05-12T11:15:37.632Z,2.02
2023-05-12T11:16:37.409Z,2.24
2023-05-12T11:17:37.631Z,2.46
2023-05-12T11:18:37.448Z,2.50
2023-05-12T11:19:37.417Z,2.58
2023-05-12T11:20:37.573Z,2.59
2023-05-12T11:21:37.465Z,2.45
2023-05-12T11:22:37.477Z,2.42
2023-05-12T11:23:37.428Z,2.37
2023-05-12T11:24:37.425Z,2.35
2023-05-12T11:25:37.537Z,2.24
2023-05-12T11:26:37.458Z,2.05
2023-05-12T11:27:37.460Z,2.13
2023-05-12T11:28:37.474Z,2.17
2023-05-12T11:29:37.484Z,2.20
2023-05-12T11:30:37.497Z,2.29
2023-05-12T11:31:37.545Z,2.29
2023-05-12T11:32:37.590Z,2.35
2023-05-12T11:33:37.573Z,2.42
2023-05-12T11:34:37.611Z,2.40
2023-05-12T11:35:37.677Z,2.43
2023-05-12T11:36:37.727Z,2.41
2023-05-12T11:37:37.789Z,2.36
2023-05-12T11:38:37.895Z,2.29
2023-05-12T11:39:37.947Z,2.26
2023-05-12T11:40:37.974Z,2.25
2023-05-12T11:41:38.076Z,2.29
2023-05-12T11:42:38.125Z,2.31
2023-05-12T11:43:38.181Z,2.33
2023-05-12T11:44:38.253Z,2.34
2023-05-12T11:45:38.316Z,2.36
2023-05-12T11:46:38.358Z,2.32
2023-05-12T11:47:38.560Z,2.38
2023-05-12T11:48:38.459Z,2.42
2023-05-12T11:49:38.472Z,2.41
2023-05-12T11:50:38.532Z,2.42
2023-05-12T11:51:38.651Z,2.45
2023-05-12T11:52:38.674Z,2.46
2023-05-12T11:53:38.764Z,2.52
2023-05-12T11:54:38.825Z,2.48
2023-05-12T11:55:38.830Z,2.49
2023-05-12T11:56:38.905Z,2.56
2023-05-12T11:57:38.928Z,2.51
2023-05-12T11:58:38.999Z,2.57
2023-05-12T11:59:39.088Z,2.64
2023-05-12T12:00:39.132Z,2.60
2023-05-12T12:01:39.186Z,2.57
2023-05-12T12:02:39.463Z,2.65
2023-05-12T12:03:39.443Z,2.56
2023-05-12T12:04:39.377Z,2.68
2023-05-12T12:05:39.416Z,2.61
2023-05-12T12:06:39.464Z,2.67
2023-05-12T12:07:39.531Z,2.62
2023-05-12T12:08:39.592Z,2.75
2023-05-12T12:09:39.588Z,2.76
2023-05-12T12:10:39.696Z,2.85
2023-05-12T12:11:39.711Z,2.93
2023-05-12T12:12:39.782Z,2.86
2023-05-12T12:13:39.897Z,2.71
2023-05-12T12:14:39.879Z,2.78
2023-05-12T12:15:39.955Z,2.79
2023-05-12T12:16:40.207Z,2.77
2023-05-12T12:17:40.319Z,2.70
2023-05-12T12:18:40.165Z,2.84
2023-05-12T12:19:40.190Z,3.04
2023-05-12T12:20:40.333Z,2.92
2023-05-12T12:21:40.299Z,2.90
2023-05-12T12:22:40.407Z,3.01
2023-05-12T12:23:50.388Z,2.91
2023-05-12T12:24:41.398Z,2.92
2023-05-12T12:25:40.373Z,2.92
2023-05-12T12:26:40.339Z,2.96
2023-05-12T12:27:40.335Z,3.07
2023-05-12T12:28:40.338Z,3.39
2023-05-12T12:29:40.348Z,3.32
2023-05-12T12:30:40.315Z,3.47
2023-05-12T12:31:40.387Z,3.44
2023-05-12T12:32:40.328Z,3.42
2023-05-12T12:33:40.385Z,3.48
2023-05-12T12:34:40.407Z,3.19
2023-05-12T12:35:40.489Z,3.06
2023-05-12T12:36:40.537Z,2.95
2023-05-12T12:37:40.627Z,2.91
2023-05-12T12:38:40.598Z,2.87
2023-05-12T12:39:40.675Z,2.79
2023-05-12T12:40:40.728Z,2.76
2023-05-12T12:41:40.785Z,2.73
2023-05-12T12:42:40.851Z,2.67
2023-05-12T12:43:40.852Z,2.65
2023-05-12T12:44:40.924Z,2.62
2023-05-12T12:45:40.928Z,2.57
2023-05-12T12:46:41.092Z,2.52
2023-05-12T12:47:41.112Z,2.54
2023-05-12T12:48:41.085Z,2.58
2023-05-12T12:49:41.095Z,2.54
2023-05-12T12:50:41.137Z,2.61
2023-05-12T12:51:46.325Z,2.59
2023-05-12T12:52:42.173Z,2.59
2023-05-12T12:53:41.187Z,2.60
2023-05-12T12:54:41.178Z,2.61
2023-05-12T12:55:41.194Z,2.62
2023-05-12T12:56:41.146Z,2.67
2023-05-12T12:57:41.154Z,2.72
2023-05-12T12:58:41.118Z,2.78
2023-05-12T12:59:41.166Z,2.84
2023-05-12T13:00:41.172Z,2.90
2023-05-12T13:01:41.135Z,2.91
2023-05-12T13:02:41.238Z,2.95
2023-05-12T13:03:41.174Z,3.01
2023-05-12T13:04:41.192Z,3.02
2023-05-12T13:05:41.261Z,3.11
2023-05-12T13:06:41.316Z,3.23
2023-05-12T13:07:41.318Z,3.38
2023-05-12T13:08:41.347Z,3.39
2023-05-12T13:09:41.403Z,3.41
2023-05-12T13:10:41.449Z,3.37
2023-05-12T13:11:41.483Z,3.35
2023-05-12T13:12:41.558Z,3.34
2023-05-12T13:13:41.616Z,3.25
2023-05-12T13:14:41.617Z,3.35
2023-05-12T13:15:41.689Z,3.36
2023-05-12T13:16:41.753Z,3.32
2023-05-12T13:17:41.809Z,3.32
2023-05-12T13:18:41.810Z,3.18
2023-05-12T13:19:41.807Z,3.07
2023-05-12T13:20:41.845Z,3.11
2023-05-12T13:21:41.923Z,2.96
2023-05-12T13:22:41.936Z,2.93
2023-05-12T13:23:42.045Z,2.94